createdAt,value
2022-11-03T00:01:15.400Z,17.75
2022-11-03T00:03:44.152Z,15.15
2022-11-03T00:06:11.545Z,16.75
2022-11-03T00:08:43.089Z,19.33
2022-11-03T00:11:12.080Z,16.17
2022-11-03T00:13:41.838Z,11.60
2022-11-03T00:16:10.474Z,12.45
2022-11-03T00:18:38.149Z,20.45
2022-11-03T00:21:08.714Z,11.73
2022-11-03T00:23:37.482Z,17.58
2022-11-03T00:26:07.027Z,14.35
2022-11-03T00:28:35.087Z,20.40
2022-11-03T00:31:03.192Z,16.40
2022-11-03T00:33:32.507Z,16.67
2022-11-03T00:36:00.048Z,17.02
2022-11-03T00:38:29.028Z,17.73
2022-11-03T00:40:57.076Z,20.00
2022-11-03T00:43:25.316Z,27.88
2022-11-03T00:45:52.807Z,16.83
2022-11-03T00:48:32.604Z,20.95
2022-11-03T00:51:04.885Z,20.77
2022-11-03T00:53:34.548Z,23.65
2022-11-03T00:56:02.414Z,15.00
2022-11-03T00:58:29.845Z,16.45
2022-11-03T01:01:05.245Z,20.85
2022-11-03T01:03:34.073Z,21.23
2022-11-03T01:06:19.324Z,18.35
2022-11-03T01:08:48.092Z,17.00
2022-11-03T01:11:34.925Z,17.58
2022-11-03T01:14:02.741Z,24.70
2022-11-03T01:16:30.621Z,23.80
2022-11-03T01:18:58.362Z,16.65
2022-11-03T01:21:25.981Z,18.60
2022-11-03T01:23:54.704Z,25.45
2022-11-03T01:26:22.333Z,19.85
2022-11-03T01:28:49.968Z,17.90
2022-11-03T01:31:19.308Z,21.67
2022-11-03T01:33:47.432Z,18.90
2022-11-03T01:36:15.878Z,19.05
2022-11-03T01:38:43.714Z,21.95
2022-11-03T01:41:16.120Z,23.63
2022-11-03T01:43:43.627Z,34.15
2022-11-03T01:46:17.301Z,26.80
2022-11-03T01:48:48.302Z,22.50
2022-11-03T01:51:17.292Z,29.17
2022-11-03T01:53:46.517Z,23.60
2022-11-03T01:56:16.492Z,26.95
2022-11-03T01:58:44.889Z,23.90
2022-11-03T02:01:12.546Z,26.02
2022-11-03T02:03:42.569Z,22.38
2022-11-03T02:06:10.704Z,36.03
2022-11-03T02:08:41.289Z,26.13
2022-11-03T02:11:22.868Z,28.60
2022-11-03T02:13:51.580Z,29.67
2022-11-03T02:16:19.448Z,33.17
2022-11-03T02:18:47.861Z,25.63
2022-11-03T02:21:24.202Z,22.23
2022-11-03T02:23:54.241Z,21.00
2022-11-03T02:26:23.035Z,28.65
2022-11-03T02:28:50.509Z,23.35
2022-11-03T02:31:22.063Z,31.42
2022-11-03T02:33:53.020Z,33.80
2022-11-03T02:36:23.994Z,23.65
2022-11-03T02:38:56.105Z,21.67
2022-11-03T02:41:25.358Z,22.33
2022-11-03T02:43:53.599Z,29.33
2022-11-03T02:46:22.007Z,25.45
2022-11-03T02:48:49.720Z,25.08
2022-11-03T02:51:17.233Z,22.90
2022-11-03T02:53:49.438Z,23.30
2022-11-03T02:56:20.216Z,26.65
2022-11-03T02:58:53.256Z,23.50
2022-11-03T03:01:24.952Z,23.45
2022-11-03T03:03:55.393Z,23.38
2022-11-03T03:06:24.932Z,24.42
2022-11-03T03:08:56.556Z,24.30
2022-11-03T03:11:38.720Z,22.33
2022-11-03T03:14:11.121Z,20.65
2022-11-03T03:16:44.292Z,22.83
2022-11-03T03:19:19.932Z,23.42
2022-11-03T03:21:50.784Z,22.00
2022-11-03T03:24:24.235Z,16.05
2022-11-03T03:26:52.025Z,24.73
2022-11-03T03:29:23.836Z,22.20
2022-11-03T03:31:56.433Z,21.15
2022-11-03T03:34:34.616Z,27.05
2022-11-03T03:37:02.739Z,22.38
2022-11-03T03:39:33.319Z,19.50
2022-11-03T03:42:02.765Z,21.35
2022-11-03T03:44:31.687Z,18.55
2022-11-03T03:47:01.654Z,17.58
2022-11-03T03:49:29.332Z,15.70
2022-11-03T03:51:57.215Z,21.92
2022-11-03T03:54:24.625Z,27.10
2022-11-03T03:56:55.148Z,17.80
2022-11-03T03:59:22.551Z,18.63
2022-11-03T04:01:51.316Z,17.45
2022-11-03T04:04:18.900Z,24.02
2022-11-03T04:06:46.310Z,19.02
2022-11-03T04:09:13.708Z,17.45
2022-11-03T04:11:58.614Z,18.63
2022-11-03T04:14:43.330Z,18.63
2022-11-03T04:17:38.100Z,21.08
2022-11-03T04:20:28.387Z,16.50
2022-11-03T04:22:55.787Z,27.40
2022-11-03T04:25:23.177Z,18.58
2022-11-03T04:27:50.579Z,21.52
2022-11-03T04:30:20.006Z,24.63
2022-11-03T04:32:49.880Z,22.25
2022-11-03T04:35:18.839Z,16.80
2022-11-03T04:37:47.915Z,19.63
2022-11-03T04:40:17.720Z,25.20
2022-11-03T04:42:45.827Z,22.15
2022-11-03T04:45:17.119Z,35.63
2022-11-03T04:47:44.675Z,40.65
2022-11-03T04:50:16.786Z,23.60
2022-11-03T04:52:44.242Z,28.08
2022-11-03T04:55:16.069Z,20.02
2022-11-03T04:57:43.794Z,26.65
2022-11-03T05:00:16.959Z,28.42
2022-11-03T05:02:44.755Z,30.05
2022-11-03T05:05:21.368Z,21.52
2022-11-03T05:07:50.307Z,19.52
2022-11-03T05:10:20.490Z,22.65
2022-11-03T05:12:48.462Z,23.70
2022-11-03T05:15:29.059Z,25.38
2022-11-03T05:17:57.354Z,24.63
2022-11-03T05:20:36.036Z,19.90
2022-11-03T05:23:05.327Z,27.40
2022-11-03T05:25:40.259Z,27.58
2022-11-03T05:28:15.976Z,23.10
2022-11-03T05:30:43.376Z,24.33
2022-11-03T05:33:20.409Z,27.00
2022-11-03T05:35:49.209Z,18.52
2022-11-03T05:38:17.886Z,19.52
2022-11-03T05:40:45.308Z,23.88
2022-11-03T05:43:14.741Z,21.40
2022-11-03T05:45:42.604Z,26.52
2022-11-03T05:48:16.362Z,21.92
2022-11-03T05:50:43.788Z,21.58
2022-11-03T05:53:23.536Z,23.23
2022-11-03T05:55:50.926Z,17.67
2022-11-03T05:58:24.033Z,27.85
2022-11-03T06:00:51.462Z,21.23
2022-11-03T06:03:22.759Z,19.85
2022-11-03T06:05:50.174Z,23.95
2022-11-03T06:08:21.040Z,27.23
2022-11-03T06:10:51.382Z,23.88
2022-11-03T06:13:21.050Z,28.42
2022-11-03T06:15:49.711Z,22.48
2022-11-03T06:18:20.283Z,24.95
2022-11-03T06:20:51.229Z,24.20
2022-11-03T06:23:20.651Z,20.73
2022-11-03T06:25:48.755Z,25.70
2022-11-03T06:28:19.530Z,27.50
2022-11-03T06:30:47.049Z,21.90
2022-11-03T06:33:16.802Z,22.65
2022-11-03T06:35:45.269Z,22.90
2022-11-03T06:38:16.944Z,19.80
2022-11-03T06:40:46.003Z,21.73
2022-11-03T06:43:17.796Z,19.88
2022-11-03T06:45:51.089Z,23.90
2022-11-03T06:48:25.355Z,22.02
2022-11-03T06:50:53.404Z,20.88
2022-11-03T06:53:23.273Z,27.08
2022-11-03T06:55:52.151Z,26.58
2022-11-03T06:58:24.483Z,26.27
2022-11-03T07:00:52.281Z,18.88
2022-11-03T07:03:23.652Z,19.67
2022-11-03T07:05:51.051Z,25.42
2022-11-03T07:08:24.107Z,22.08
2022-11-03T07:10:59.955Z,20.13
2022-11-03T07:13:28.590Z,21.17
2022-11-03T07:15:55.982Z,17.13
2022-11-03T07:18:25.296Z,21.88
2022-11-03T07:20:53.414Z,15.48
2022-11-03T07:23:23.810Z,17.27
2022-11-03T07:25:54.608Z,20.90
2022-11-03T07:28:24.269Z,32.60
2022-11-03T07:30:51.665Z,23.42
2022-11-03T07:33:22.102Z,18.65
2022-11-03T07:38:39.033Z,19.77
2022-11-03T07:41:13.430Z,16.27
2022-11-03T07:43:40.934Z,22.92
2022-11-03T07:46:15.353Z,14.93
2022-11-03T07:48:46.851Z,16.95
2022-11-03T07:51:18.434Z,17.25
2022-11-03T07:53:47.550Z,15.02
2022-11-03T07:56:20.248Z,15.73
2022-11-03T07:58:49.557Z,14.13
2022-11-03T08:01:26.191Z,22.13
2022-11-03T08:03:56.390Z,16.27
2022-11-03T08:06:23.819Z,12.68
2022-11-03T08:08:51.207Z,10.48
2022-11-03T08:11:22.043Z,14.60
2022-11-03T08:13:52.211Z,12.40
2022-11-03T08:16:19.843Z,13.43
2022-11-03T08:18:47.508Z,13.95
2022-11-03T08:21:15.022Z,10.95
2022-11-03T08:23:47.157Z,16.98
2022-11-03T08:26:15.449Z,12.57
2022-11-03T08:28:44.197Z,14.70
2022-11-03T08:31:13.124Z,14.95
2022-11-03T08:33:41.168Z,10.30
2022-11-03T08:36:09.569Z,18.25
2022-11-03T08:38:37.320Z,9.68
2022-11-03T08:41:05.095Z,17.00
2022-11-03T08:43:32.532Z,13.63
2022-11-03T08:46:08.248Z,11.57
2022-11-03T08:48:43.086Z,14.45
2022-11-03T08:51:13.362Z,8.32
2022-11-03T08:53:42.494Z,12.23
2022-11-03T08:56:12.506Z,14.10
2022-11-03T08:58:41.315Z,10.25
2022-11-03T09:01:10.087Z,10.10
2022-11-03T09:03:37.651Z,12.20
2022-11-03T09:06:05.467Z,13.05
2022-11-03T09:11:20.402Z,12.60
2022-11-03T09:13:47.853Z,11.50
2022-11-03T09:16:16.740Z,12.32
2022-11-03T09:18:45.333Z,10.43
2022-11-03T09:21:13.523Z,11.32
2022-11-03T09:23:41.092Z,10.30
2022-11-03T09:26:08.499Z,9.55
2022-11-03T09:28:35.908Z,28.05
2022-11-03T09:31:03.306Z,14.02
2022-11-03T09:33:32.374Z,10.60
2022-11-03T09:35:59.791Z,12.18
2022-11-03T09:38:27.223Z,12.52
2022-11-03T09:40:55.592Z,13.95
2022-11-03T09:43:23.017Z,13.15
2022-11-03T09:45:50.465Z,8.77
2022-11-03T09:48:17.939Z,10.55
2022-11-03T09:50:47.082Z,10.63
2022-11-03T09:53:14.933Z,15.32
2022-11-03T09:55:42.311Z,11.40
2022-11-03T09:58:12.084Z,10.73
2022-11-03T10:00:39.725Z,15.82
2022-11-03T10:03:07.532Z,11.52
2022-11-03T10:05:36.586Z,8.32
2022-11-03T10:08:18.362Z,11.30
2022-11-03T10:10:49.697Z,11.27
2022-11-03T10:13:24.692Z,12.10
2022-11-03T10:15:52.191Z,11.35
2022-11-03T10:18:19.887Z,10.85
2022-11-03T10:20:47.358Z,7.10
2022-11-03T10:23:16.084Z,11.38
2022-11-03T10:25:44.742Z,10.15
2022-11-03T10:28:17.270Z,12.88
2022-11-03T10:31:12.972Z,11.00
2022-11-03T10:33:41.809Z,13.75
2022-11-03T10:36:24.099Z,12.30
2022-11-03T10:38:53.103Z,8.27
2022-11-03T10:41:21.740Z,8.88
2022-11-03T10:44:02.185Z,9.40
2022-11-03T10:46:49.119Z,12.40
2022-11-03T10:49:19.160Z,11.85
2022-11-03T10:51:49.304Z,16.80
2022-11-03T10:54:19.288Z,13.55
2022-11-03T10:56:47.365Z,12.52
2022-11-03T10:59:18.277Z,10.93
2022-11-03T11:01:47.694Z,10.25
2022-11-03T11:04:16.891Z,9.15
2022-11-03T11:06:44.441Z,11.13
2022-11-03T11:09:13.565Z,9.45
2022-11-03T11:11:59.602Z,14.23
2022-11-03T11:14:36.978Z,11.68
2022-11-03T11:17:05.120Z,10.95
2022-11-03T11:20:11.406Z,10.52
2022-11-03T11:22:40.123Z,10.75
2022-11-03T11:25:08.560Z,14.15
2022-11-03T11:27:58.832Z,17.08
2022-11-03T11:30:59.632Z,9.57
2022-11-03T11:33:27.962Z,10.63
2022-11-03T11:36:21.220Z,10.88
2022-11-03T11:39:00.152Z,13.93
2022-11-03T11:42:05.408Z,14.27
2022-11-03T11:44:53.337Z,14.98
2022-11-03T11:47:27.025Z,12.80
2022-11-03T11:50:16.723Z,21.58
2022-11-03T11:52:46.183Z,10.27
2022-11-03T11:55:19.845Z,13.30
2022-11-03T11:57:48.264Z,14.88
2022-11-03T12:00:22.199Z,11.25
2022-11-03T12:05:21.832Z,11.77
2022-11-03T12:07:49.708Z,14.98
2022-11-03T12:10:19.629Z,16.63
2022-11-03T12:12:47.321Z,14.88
2022-11-03T12:15:49.501Z,23.80
2022-11-03T12:18:32.865Z,16.45
2022-11-03T12:21:05.157Z,10.25
2022-11-03T12:23:42.297Z,12.57
2022-11-03T12:26:42.749Z,13.57
2022-11-03T12:29:10.211Z,13.05
2022-11-03T12:31:37.613Z,11.32
2022-11-03T12:34:05.026Z,10.13
2022-11-03T12:36:32.416Z,11.57
2022-11-03T12:38:59.830Z,13.73
2022-11-03T12:41:28.544Z,10.95
2022-11-03T12:43:56.896Z,11.02
2022-11-03T12:46:24.511Z,12.40
2022-11-03T12:48:52.497Z,8.38
2022-11-03T12:51:20.970Z,12.60
2022-11-03T12:53:48.836Z,15.02
2022-11-03T12:56:16.820Z,11.20
2022-11-03T12:58:46.040Z,14.90
2022-11-03T13:01:13.748Z,13.90
2022-11-03T13:03:41.223Z,16.88
2022-11-03T13:06:10.252Z,15.70
2022-11-03T13:08:38.340Z,14.73
2022-11-03T13:11:26.005Z,14.07
2022-11-03T13:13:55.036Z,12.30
2022-11-03T13:16:24.068Z,11.80
2022-11-03T13:18:51.494Z,11.95
2022-11-03T13:21:19.953Z,17.17
2022-11-03T13:23:47.425Z,9.70
2022-11-03T13:26:15.045Z,14.25
2022-11-03T13:28:42.434Z,15.48
2022-11-03T13:31:11.231Z,13.40
2022-11-03T13:33:38.631Z,10.80
2022-11-03T13:36:06.734Z,11.02
2022-11-03T13:38:34.343Z,9.85
2022-11-03T13:41:08.157Z,12.20
2022-11-03T13:43:36.431Z,16.10
2022-11-03T13:46:05.028Z,17.05
2022-11-03T13:51:21.537Z,14.30
2022-11-03T14:04:45.372Z,12.77
2022-11-03T14:07:12.930Z,9.77
2022-11-03T14:09:40.329Z,13.07
2022-11-03T14:12:25.684Z,12.80
2022-11-03T14:14:53.095Z,14.50
2022-11-03T14:17:20.487Z,12.70
2022-11-03T14:19:52.626Z,13.93
2022-11-03T14:22:21.094Z,13.85
2022-11-03T14:24:48.759Z,14.70
2022-11-03T14:27:16.601Z,11.88
2022-11-03T14:29:44.468Z,16.42
2022-11-03T14:32:12.197Z,12.77
2022-11-03T14:34:39.827Z,11.50
2022-11-03T14:37:09.103Z,12.88
2022-11-03T14:39:37.307Z,12.18
2022-11-03T14:42:04.318Z,12.85
2022-11-03T14:44:32.356Z,12.38
2022-11-03T14:47:01.306Z,14.13
2022-11-03T14:49:28.774Z,13.27
2022-11-03T14:51:57.544Z,13.68
2022-11-03T14:54:26.771Z,14.75
2022-11-03T14:56:54.475Z,11.52
2022-11-03T14:59:22.292Z,16.52
2022-11-03T15:01:51.436Z,18.55
2022-11-03T15:04:19.023Z,16.45
2022-11-03T15:06:46.611Z,13.70
2022-11-03T15:09:15.269Z,16.63
2022-11-03T15:11:44.566Z,11.98
2022-11-03T15:14:12.669Z,14.63
2022-11-03T15:16:40.522Z,13.90
2022-11-03T15:19:08.689Z,10.55
2022-11-03T15:21:36.377Z,10.75
2022-11-03T15:26:52.442Z,15.68
2022-11-03T15:29:20.171Z,14.07
2022-11-03T15:31:48.583Z,13.23
2022-11-03T15:34:16.256Z,18.02
2022-11-03T15:36:43.650Z,17.25
2022-11-03T15:39:13.100Z,13.18
2022-11-03T15:41:40.719Z,11.05
2022-11-03T15:44:09.967Z,15.10
2022-11-03T15:46:37.482Z,13.05
2022-11-03T15:49:04.874Z,12.23
2022-11-03T15:51:32.456Z,13.50
2022-11-03T15:54:03.199Z,15.95
2022-11-03T15:56:31.036Z,12.90
2022-11-03T15:58:58.435Z,11.70
2022-11-03T16:01:27.335Z,18.98
2022-11-03T16:03:54.814Z,25.73
2022-11-03T16:06:27.034Z,18.58
2022-11-03T16:09:07.847Z,16.30
2022-11-03T16:11:35.258Z,15.25
2022-11-03T16:14:02.772Z,20.70
2022-11-03T16:16:31.753Z,19.38
2022-11-03T16:18:59.142Z,17.98
2022-11-03T16:21:26.674Z,15.65
2022-11-03T16:23:54.131Z,14.80
2022-11-03T16:26:24.163Z,16.95
2022-11-03T16:28:51.670Z,18.17
2022-11-03T16:31:19.129Z,17.05
2022-11-03T16:33:47.877Z,18.35
2022-11-03T16:36:15.287Z,15.48
2022-11-03T16:38:42.666Z,18.30
2022-11-03T16:41:10.079Z,16.83
2022-11-03T16:43:37.605Z,16.88
2022-11-03T16:46:05.481Z,18.75
2022-11-03T16:48:32.922Z,17.95
2022-11-03T16:51:01.811Z,18.20
2022-11-03T16:53:29.290Z,17.25
2022-11-03T16:55:56.775Z,16.98
2022-11-03T16:58:24.326Z,15.10
2022-11-03T17:00:51.847Z,20.13
2022-11-03T17:03:19.323Z,16.30
2022-11-03T17:05:46.726Z,15.20
2022-11-03T17:08:38.946Z,17.52
2022-11-03T17:11:02.905Z,17.85
2022-11-03T17:13:30.359Z,14.57
2022-11-03T17:15:57.752Z,14.93
2022-11-03T17:18:25.181Z,22.38
2022-11-03T17:20:52.609Z,17.88
2022-11-03T17:23:21.315Z,12.18
2022-11-03T17:25:48.774Z,14.10
2022-11-03T17:28:18.692Z,16.35
2022-11-03T17:30:46.197Z,14.48
2022-11-03T17:33:16.952Z,16.92
2022-11-03T17:35:45.478Z,23.85
2022-11-03T17:38:15.549Z,18.52
2022-11-03T17:40:45.686Z,16.25
2022-11-03T17:43:22.376Z,13.07
2022-11-03T17:45:49.918Z,14.63
2022-11-03T17:48:17.337Z,13.77
2022-11-03T17:50:47.423Z,18.58
2022-11-03T17:53:22.512Z,39.92
2022-11-03T17:56:09.044Z,19.77
2022-11-03T17:58:45.846Z,12.48
2022-11-03T18:01:15.213Z,17.08
2022-11-03T18:03:42.720Z,14.40
2022-11-03T18:06:16.188Z,13.40
2022-11-03T18:08:44.548Z,12.05
2022-11-03T18:11:34.319Z,17.35
2022-11-03T18:14:00.838Z,13.18
2022-11-03T18:16:28.384Z,13.88
2022-11-03T18:18:55.952Z,13.35
2022-11-03T18:21:24.502Z,15.93
2022-11-03T18:23:51.939Z,13.02
2022-11-03T18:26:21.835Z,12.77
2022-11-03T18:28:50.284Z,13.15
2022-11-03T18:31:21.193Z,16.33
2022-11-03T18:33:48.889Z,12.45
2022-11-03T18:36:16.683Z,14.77
2022-11-03T18:38:45.379Z,12.60
2022-11-03T18:41:28.711Z,13.02
2022-11-03T18:43:57.420Z,15.77
2022-11-03T18:46:24.818Z,13.68
2022-11-03T18:48:52.388Z,13.02
2022-11-03T18:51:19.810Z,14.68
2022-11-03T18:53:47.363Z,10.77
2022-11-03T18:56:16.084Z,12.88
2022-11-03T18:58:43.474Z,13.43
2022-11-03T19:01:13.776Z,10.10
2022-11-03T19:03:41.215Z,14.25
2022-11-03T19:06:10.089Z,15.52
2022-11-03T19:08:37.542Z,19.00
2022-11-03T19:11:05.043Z,19.58
2022-11-03T19:13:36.636Z,10.43
2022-11-03T19:16:14.172Z,20.38
2022-11-03T19:18:44.084Z,13.35
2022-11-03T19:21:13.676Z,15.98
2022-11-03T19:23:44.889Z,15.00
2022-11-03T19:28:44.385Z,13.07
2022-11-03T19:31:17.272Z,25.20
2022-11-03T19:33:46.412Z,18.40
2022-11-03T19:36:13.829Z,18.40
2022-11-03T19:38:41.355Z,23.98
2022-11-03T19:41:31.471Z,17.38
2022-11-03T19:43:58.859Z,15.30
2022-11-03T19:46:26.492Z,17.25
2022-11-03T19:48:55.773Z,16.30
2022-11-03T19:51:23.255Z,20.02
2022-11-03T19:53:50.765Z,17.48
2022-11-03T19:56:18.459Z,14.90
2022-11-03T19:58:45.837Z,17.02
2022-11-03T20:01:13.335Z,18.92
2022-11-03T20:03:40.834Z,16.40
2022-11-03T20:06:09.641Z,20.83
2022-11-03T20:08:37.473Z,16.33
2022-11-03T20:11:06.271Z,20.30
2022-11-03T20:13:38.904Z,21.65
2022-11-03T20:16:10.850Z,16.60
2022-11-03T20:18:38.342Z,14.52
2022-11-03T20:21:06.010Z,16.80
2022-11-03T20:23:38.247Z,19.40
2022-11-03T20:26:06.697Z,14.65
2022-11-03T20:28:37.228Z,12.63
2022-11-03T20:31:04.689Z,22.25
2022-11-03T20:33:32.215Z,17.80
2022-11-03T20:35:59.648Z,14.75
2022-11-03T20:38:27.985Z,16.02
2022-11-03T20:40:59.190Z,17.15
2022-11-03T20:43:28.441Z,14.05
2022-11-03T20:45:56.320Z,15.25
2022-11-03T20:48:23.965Z,21.02
2022-11-03T20:50:51.973Z,19.33
2022-11-03T20:53:21.295Z,21.83
2022-11-03T20:55:49.013Z,19.70
2022-11-03T20:58:18.895Z,21.20
2022-11-03T21:00:47.459Z,19.75
2022-11-03T21:03:37.883Z,16.15
2022-11-03T21:06:06.254Z,18.15
2022-11-03T21:08:33.654Z,15.98
2022-11-03T21:11:23.150Z,12.98
2022-11-03T21:13:52.313Z,23.08
2022-11-03T21:16:37.395Z,22.00
2022-11-03T21:19:27.275Z,17.25
2022-11-03T21:21:54.738Z,21.23
2022-11-03T21:24:22.202Z,19.13
2022-11-03T21:26:49.648Z,20.20
2022-11-03T21:29:27.852Z,18.33
2022-11-03T21:32:06.547Z,19.25
2022-11-03T21:34:34.050Z,15.93
2022-11-03T21:37:01.448Z,17.65
2022-11-03T21:39:29.608Z,16.15
2022-11-03T21:42:29.123Z,21.80
2022-11-03T21:44:58.526Z,18.33
2022-11-03T21:47:26.345Z,18.75
2022-11-03T21:49:52.839Z,19.52
2022-11-03T21:52:31.600Z,23.38
2022-11-03T21:54:59.485Z,20.10
2022-11-03T21:57:27.029Z,21.67
2022-11-03T21:59:54.444Z,25.13
2022-11-03T22:02:23.230Z,22.52
2022-11-03T22:04:51.132Z,24.98
2022-11-03T22:07:18.576Z,20.67
2022-11-03T22:09:45.997Z,20.45
2022-11-03T22:12:13.384Z,19.60
2022-11-03T22:14:58.171Z,19.73
2022-11-03T22:17:26.891Z,22.02
2022-11-03T22:20:23.132Z,20.15
2022-11-03T22:23:08.134Z,17.60
2022-11-03T22:25:53.119Z,22.77
2022-11-03T22:28:20.948Z,23.65
2022-11-03T22:31:06.260Z,21.88
2022-11-03T22:33:55.664Z,19.83
2022-11-03T22:36:25.046Z,19.95
2022-11-03T22:39:10.086Z,19.42
2022-11-03T22:42:05.871Z,25.45
2022-11-03T22:44:51.772Z,19.90
2022-11-03T22:47:19.225Z,19.33
2022-11-03T22:49:47.974Z,23.60
2022-11-03T22:52:15.360Z,21.85
2022-11-03T22:54:41.798Z,24.92
2022-11-03T22:57:11.233Z,22.63
2022-11-03T22:59:38.627Z,22.58
2022-11-03T23:02:06.142Z,25.90
2022-11-03T23:04:34.122Z,25.73
2022-11-03T23:07:02.844Z,23.23
2022-11-03T23:09:30.485Z,24.75
2022-11-03T23:11:57.886Z,20.10
2022-11-03T23:14:45.317Z,28.85
2022-11-03T23:17:12.704Z,21.50
2022-11-03T23:19:57.968Z,18.67
2022-11-03T23:22:26.704Z,26.20
2022-11-03T23:25:02.020Z,23.90
2022-11-03T23:27:29.574Z,29.58
2022-11-03T23:29:56.970Z,26.95
2022-11-03T23:32:24.369Z,24.67
2022-11-03T23:34:52.206Z,26.05
2022-11-03T23:37:19.617Z,21.48
2022-11-03T23:39:48.337Z,26.55
2022-11-03T23:42:15.732Z,22.23
2022-11-03T23:45:00.633Z,30.02
2022-11-03T23:47:45.606Z,28.17
2022-11-03T23:50:13.009Z,22.88
2022-11-03T23:52:40.420Z,26.20
2022-11-03T23:55:09.891Z,21.23
2022-11-03T23:57:54.748Z,25.85
